Time;durP1;ratioP1;P1;durP2;ratioP2;P2;SDS_P1;SDS_P2;PMS_P1;PMS_P2;Temp;Humidity;BMP_temperature;BMP_pressure;BME280_temperature;BME280_humidity;BME280_pressure;Samples;Min_cycle;Max_cycle;Signal;HPM_P1;HPM_P2
2022/01/26 00:00:05;;;;;;;85.20;38.42;;;3.30;99.90;;;;;;4953561;28;20059;-49
2022/01/26 00:08:07;;;;;;;77.18;38.58;;;3.20;99.90;;;;;;4977521;28;20075;-50
2022/01/26 00:10:34;;;;;;;85.28;40.80;;;3.20;99.90;;;;;;4931462;28;20569;-49
2022/01/26 00:13:00;;;;;;;91.47;40.58;;;3.20;99.90;;;;;;4977874;28;20731;-49
2022/01/26 00:15:29;;;;;;;86.68;38.72;;;3.20;99.90;;;;;;4978247;28;20059;-49
2022/01/26 00:17:56;;;;;;;86.93;40.05;;;3.20;99.90;;;;;;4976959;28;20046;-49
2022/01/26 00:20:40;;;;;;;92.32;41.60;;;3.10;99.90;;;;;;4944218;28;20117;-49
2022/01/26 00:23:34;;;;;;;90.32;42.53;;;3.10;99.90;;;;;;4945873;28;20046;-48
2022/01/26 00:28:34;;;;;;;87.47;40.95;;;3.10;99.90;;;;;;4962175;28;20038;-63
2022/01/26 00:32:56;;;;;;;81.88;37.83;;;3.10;99.90;;;;;;4952219;28;20065;-49
2022/01/26 00:39:30;;;;;;;92.95;40.97;;;3.00;99.90;;;;;;4972569;28;20051;-63
2022/01/26 00:41:58;;;;;;;91.25;41.42;;;3.00;99.90;;;;;;4960522;28;20045;-63
2022/01/26 00:44:33;;;;;;;92.93;40.50;;;3.00;99.90;;;;;;4962034;28;20490;-64
2022/01/26 00:46:59;;;;;;;86.18;39.30;;;3.00;99.90;;;;;;4963098;28;20519;-63
2022/01/26 00:49:26;;;;;;;92.45;42.72;;;3.00;99.90;;;;;;4961790;28;20091;-64
2022/01/26 00:51:54;;;;;;;89.50;39.83;;;3.00;99.90;;;;;;4962459;28;20279;-63
2022/01/26 00:54:20;;;;;;;90.50;41.85;;;3.00;99.90;;;;;;4945051;28;20185;-49
2022/01/26 00:56:46;;;;;;;84.60;41.35;;;2.90;99.90;;;;;;4962739;28;20051;-50
2022/01/26 00:59:13;;;;;;;96.43;42.15;;;2.90;99.90;;;;;;4976584;28;20425;-50
2022/01/26 01:01:39;;;;;;;89.93;41.47;;;2.90;99.90;;;;;;4975340;28;20051;-50
2022/01/26 01:04:05;;;;;;;94.72;40.45;;;2.90;99.90;;;;;;4956819;28;20501;-48
2022/01/26 01:06:40;;;;;;;90.95;39.60;;;2.90;99.90;;;;;;4941274;28;20047;-49
2022/01/26 01:09:06;;;;;;;93.95;41.78;;;2.90;99.90;;;;;;4927906;28;20058;-49
2022/01/26 01:11:32;;;;;;;92.95;39.67;;;2.90;99.90;;;;;;4965662;28;20157;-51
2022/01/26 01:13:58;;;;;;;88.78;38.38;;;2.90;99.90;;;;;;4952714;28;20529;-63
2022/01/26 01:16:25;;;;;;;91.93;41.00;;;2.90;99.90;;;;;;4960014;28;20051;-64
2022/01/26 01:19:06;;;;;;;95.25;40.75;;;2.90;99.90;;;;;;4951422;28;20058;-63
2022/01/26 01:22:17;;;;;;;82.20;38.42;;;3.00;99.90;;;;;;4959780;28;20104;-63
2022/01/26 01:24:54;;;;;;;86.75;37.47;;;3.00;99.90;;;;;;4943382;28;20141;-64
2022/01/26 01:30:22;;;;;;;80.18;37.30;;;2.90;99.90;;;;;;4946235;28;20115;-63
2022/01/26 01:33:05;;;;;;;79.82;36.17;;;2.90;99.90;;;;;;4958938;28;20116;-63
2022/01/26 01:35:34;;;;;;;89.32;40.78;;;2.90;99.90;;;;;;4966286;28;20054;-63
2022/01/26 01:38:08;;;;;;;79.78;35.97;;;2.90;99.90;;;;;;4976004;28;20051;-49
2022/01/26 01:40:39;;;;;;;81.20;37.15;;;2.90;99.90;;;;;;4959223;28;20486;-49
2022/01/26 01:43:06;;;;;;;79.43;37.83;;;2.90;99.90;;;;;;4960700;28;22245;-50
2022/01/26 01:45:37;;;;;;;82.50;37.35;;;2.90;99.90;;;;;;4962496;28;20047;-50
2022/01/26 01:48:04;;;;;;;81.72;35.20;;;2.90;99.90;;;;;;4959667;28;20039;-49
2022/01/26 01:50:36;;;;;;;79.47;37.58;;;2.90;99.90;;;;;;4976671;28;20397;-50
2022/01/26 01:53:02;;;;;;;78.07;36.97;;;2.90;99.90;;;;;;4977149;28;20062;-49
2022/01/26 01:55:30;;;;;;;83.60;36.92;;;2.90;99.90;;;;;;4961010;28;20043;-49
2022/01/26 01:57:57;;;;;;;78.05;35.95;;;2.90;99.90;;;;;;4960795;28;20126;-47
2022/01/26 02:00:24;;;;;;;79.32;36.88;;;2.90;99.90;;;;;;4962541;28;20047;-50
2022/01/26 02:02:50;;;;;;;82.20;34.50;;;2.90;99.90;;;;;;4960905;28;20062;-49
2022/01/26 02:05:16;;;;;;;79.82;37.42;;;2.90;99.90;;;;;;4945285;28;20500;-49
2022/01/26 02:07:42;;;;;;;82.97;36.47;;;2.90;99.90;;;;;;4965828;28;20082;-64
2022/01/26 02:10:10;;;;;;;77.57;36.33;;;2.90;99.90;;;;;;4960620;28;20104;-63
2022/01/26 02:12:41;;;;;;;84.43;38.17;;;2.90;99.90;;;;;;4958571;28;20035;-49
2022/01/26 02:15:15;;;;;;;80.82;36.10;;;2.90;99.90;;;;;;4961874;28;20047;-48
2022/01/26 02:51:07;;;;;;;89.47;38.35;;;2.80;99.90;;;;;;4981867;28;20059;-63
2022/01/26 02:57:07;;;;;;;85.50;37.38;;;2.80;99.90;;;;;;4965062;28;20442;-48
2022/01/26 03:09:58;;;;;;;92.22;38.58;;;2.60;99.90;;;;;;4973038;28;20053;-50
2022/01/26 03:12:33;;;;;;;83.60;37.97;;;2.60;99.90;;;;;;4968320;28;20070;-50
2022/01/26 03:15:09;;;;;;;85.43;38.08;;;2.60;99.90;;;;;;4946459;28;20634;-48
2022/01/26 03:18:13;;;;;;;97.10;42.22;;;2.60;99.90;;;;;;4960840;28;20047;-64
2022/01/26 03:20:38;;;;;;;94.65;40.10;;;2.60;99.90;;;;;;4965389;28;20279;-64
2022/01/26 03:28:45;;;;;;;105.18;44.08;;;2.60;99.90;;;;;;4972918;28;20054;-64
2022/01/26 03:36:13;;;;;;;98.85;41.65;;;2.60;99.90;;;;;;4929983;28;20125;-63
2022/01/26 03:38:47;;;;;;;96.50;38.15;;;2.50;99.90;;;;;;4945075;28;20065;-64
2022/01/26 03:43:39;;;;;;;102.18;43.00;;;2.50;99.90;;;;;;4963371;28;20057;-49
2022/01/26 03:46:06;;;;;;;94.35;40.35;;;2.50;99.90;;;;;;4960377;28;20517;-50
2022/01/26 03:48:32;;;;;;;92.65;39.60;;;2.50;99.90;;;;;;4962726;28;20047;-63
2022/01/26 03:51:00;;;;;;;91.15;39.92;;;2.60;99.90;;;;;;4975814;28;20258;-64
2022/01/26 03:53:26;;;;;;;100.18;41.28;;;2.50;99.90;;;;;;4978213;28;20058;-63
2022/01/26 03:55:52;;;;;;;103.82;41.53;;;2.60;99.90;;;;;;4946015;28;20137;-52
2022/01/26 03:58:19;;;;;;;92.97;37.72;;;2.50;99.90;;;;;;4989871;28;20043;-51
2022/01/26 04:00:45;;;;;;;89.90;38.50;;;2.50;99.90;;;;;;4945532;28;20093;-50
2022/01/26 04:03:13;;;;;;;99.53;38.97;;;2.50;99.90;;;;;;4968308;28;20137;-48
2022/01/26 04:05:39;;;;;;;89.45;38.90;;;2.60;99.90;;;;;;4959051;28;20878;-49
2022/01/26 04:08:12;;;;;;;97.40;42.75;;;2.60;99.90;;;;;;4963627;28;20042;-48
2022/01/26 04:13:23;;;;;;;94.05;41.00;;;2.60;99.90;;;;;;4977153;28;20078;-49
2022/01/26 04:15:49;;;;;;;95.25;37.53;;;2.60;99.90;;;;;;4970947;28;20074;-53
2022/01/26 04:18:21;;;;;;;92.90;40.17;;;2.60;99.90;;;;;;4961142;28;20047;-64
2022/01/26 04:20:51;;;;;;;102.18;41.78;;;2.50;99.90;;;;;;4961952;28;20497;-64
2022/01/26 04:23:28;;;;;;;97.68;42.35;;;2.50;99.90;;;;;;4975441;28;20042;-64
2022/01/26 04:25:55;;;;;;;97.82;41.10;;;2.50;99.90;;;;;;4959230;28;20453;-64
2022/01/26 04:28:31;;;;;;;96.88;40.00;;;2.50;99.90;;;;;;4950885;28;20046;-63
2022/01/26 04:30:57;;;;;;;94.63;38.72;;;2.60;99.90;;;;;;4959166;28;20051;-64
2022/01/26 04:33:23;;;;;;;101.57;41.13;;;2.60;99.90;;;;;;4960512;28;20049;-64
2022/01/26 04:35:50;;;;;;;92.78;37.08;;;2.60;99.90;;;;;;4930103;28;20560;-64
2022/01/26 04:43:22;;;;;;;95.60;40.20;;;2.60;99.90;;;;;;4945904;28;20170;-64
2022/01/26 04:45:49;;;;;;;105.30;39.87;;;2.50;99.90;;;;;;4962844;28;20126;-64
2022/01/26 04:48:15;;;;;;;99.47;39.38;;;2.60;99.90;;;;;;4978067;28;20039;-49
2022/01/26 04:50:41;;;;;;;88.45;37.95;;;2.50;99.90;;;;;;5003329;28;20056;-51
2022/01/26 04:53:08;;;;;;;91.88;36.40;;;2.50;99.90;;;;;;4946037;28;20047;-51
2022/01/26 04:55:34;;;;;;;91.03;37.65;;;2.50;99.90;;;;;;4977435;28;20484;-64
2022/01/26 04:58:00;;;;;;;91.97;38.83;;;2.50;99.90;;;;;;4960166;28;20122;-64
2022/01/26 05:00:26;;;;;;;91.88;40.25;;;2.50;99.90;;;;;;4976754;28;20126;-64
2022/01/26 05:02:53;;;;;;;95.40;39.72;;;2.50;99.90;;;;;;4964990;28;20053;-64
2022/01/26 05:05:19;;;;;;;94.80;39.40;;;2.50;99.90;;;;;;4963590;28;20115;-64
2022/01/26 05:07:45;;;;;;;101.25;39.53;;;2.50;99.90;;;;;;4962028;28;20143;-63
2022/01/26 05:10:11;;;;;;;93.70;38.47;;;2.50;99.90;;;;;;4960719;28;20119;-64
2022/01/26 05:12:38;;;;;;;87.45;37.50;;;2.50;99.90;;;;;;4964960;28;20660;-64
2022/01/26 05:15:04;;;;;;;91.20;37.47;;;2.50;99.90;;;;;;4944626;28;20409;-63
2022/01/26 05:17:31;;;;;;;88.13;36.72;;;2.50;99.90;;;;;;4958443;28;20053;-64
2022/01/26 05:19:59;;;;;;;88.03;37.70;;;2.50;99.90;;;;;;4959815;28;20047;-65
2022/01/26 05:22:26;;;;;;;85.43;36.10;;;2.50;99.90;;;;;;4974620;28;20051;-64
2022/01/26 05:24:53;;;;;;;83.70;35.67;;;2.50;99.90;;;;;;4940662;28;20049;-64
2022/01/26 05:27:19;;;;;;;81.57;36.38;;;2.50;99.90;;;;;;4963243;28;20039;-64
2022/01/26 05:29:45;;;;;;;78.20;33.08;;;2.50;99.90;;;;;;4951868;28;20050;-49
2022/01/26 05:32:11;;;;;;;87.97;35.90;;;2.40;99.90;;;;;;4934293;28;20165;-50
2022/01/26 05:34:37;;;;;;;81.35;35.50;;;2.50;99.90;;;;;;4963360;28;20049;-52
2022/01/26 05:37:03;;;;;;;78.68;33.78;;;2.40;99.90;;;;;;4928468;28;20047;-51
2022/01/26 05:39:32;;;;;;;86.90;36.70;;;2.40;99.90;;;;;;4977612;28;20043;-64
2022/01/26 05:41:58;;;;;;;87.22;36.25;;;2.40;99.90;;;;;;4958368;28;20457;-64
2022/01/26 05:44:24;;;;;;;79.10;34.78;;;2.40;99.90;;;;;;4952646;28;20398;-51
2022/01/26 05:46:50;;;;;;;77.10;33.92;;;2.40;99.90;;;;;;4960212;28;20058;-49
2022/01/26 05:49:18;;;;;;;84.72;35.58;;;2.40;99.90;;;;;;4971137;28;20597;-49
2022/01/26 05:51:47;;;;;;;79.35;33.72;;;2.40;99.90;;;;;;4974698;28;20050;-51
2022/01/26 05:54:15;;;;;;;85.60;34.20;;;2.40;99.90;;;;;;4974470;28;20099;-52
2022/01/26 05:56:42;;;;;;;80.82;33.50;;;2.40;99.90;;;;;;4962666;28;20046;-51
2022/01/26 05:59:09;;;;;;;78.18;32.88;;;2.40;99.90;;;;;;4965724;28;20462;-51
2022/01/26 06:01:35;;;;;;;74.15;32.30;;;2.40;99.90;;;;;;4966560;28;20116;-52
2022/01/26 06:04:02;;;;;;;87.80;34.15;;;2.50;99.90;;;;;;4915423;28;20576;-50
2022/01/26 06:06:29;;;;;;;75.18;32.17;;;2.50;99.90;;;;;;4969745;28;20047;-51
2022/01/26 06:08:55;;;;;;;80.38;32.42;;;2.50;99.90;;;;;;4963284;28;20043;-49
2022/01/26 06:11:21;;;;;;;73.03;32.10;;;2.40;99.90;;;;;;4958128;28;20080;-50
2022/01/26 06:13:47;;;;;;;75.40;31.27;;;2.60;99.90;;;;;;4974490;28;20047;-49
2022/01/26 06:16:14;;;;;;;72.65;31.70;;;2.50;99.90;;;;;;4939082;28;20047;-48
2022/01/26 06:18:40;;;;;;;72.45;30.67;;;2.50;99.90;;;;;;4944669;28;20059;-48
2022/01/26 06:21:07;;;;;;;65.57;29.88;;;2.50;99.90;;;;;;4957480;28;20054;-51
2022/01/26 06:23:34;;;;;;;69.07;29.95;;;2.50;99.90;;;;;;4952732;28;20054;-48
2022/01/26 06:26:00;;;;;;;66.00;28.92;;;2.50;99.90;;;;;;4957355;28;20051;-48
2022/01/26 06:28:27;;;;;;;64.95;29.75;;;2.50;99.90;;;;;;4968333;28;20129;-48
2022/01/26 06:30:59;;;;;;;69.65;30.00;;;2.40;99.90;;;;;;4946613;28;20058;-51
2022/01/26 06:33:26;;;;;;;68.28;29.23;;;2.50;99.90;;;;;;4959976;28;20047;-48
2022/01/26 06:35:53;;;;;;;63.53;28.27;;;2.50;99.90;;;;;;4928557;28;20182;-63
2022/01/26 06:38:19;;;;;;;62.28;28.10;;;2.50;99.90;;;;;;4968850;28;20119;-63
2022/01/26 06:40:45;;;;;;;70.45;29.98;;;2.50;99.90;;;;;;4948105;28;20050;-64
2022/01/26 06:43:14;;;;;;;73.45;31.60;;;2.40;99.90;;;;;;4956982;28;20055;-64
2022/01/26 06:45:55;;;;;;;68.55;29.08;;;2.50;99.90;;;;;;4962903;28;20104;-63
2022/01/26 06:50:53;;;;;;;59.65;26.92;;;2.50;99.90;;;;;;4963415;28;20055;-63
2022/01/26 06:53:19;;;;;;;70.80;27.38;;;2.50;99.90;;;;;;4960102;28;20070;-64
2022/01/26 06:55:45;;;;;;;63.72;27.65;;;2.50;99.90;;;;;;4962064;28;20173;-50
2022/01/26 06:58:11;;;;;;;65.75;28.17;;;2.50;99.90;;;;;;4963849;28;20049;-49
2022/01/26 07:00:37;;;;;;;61.88;26.27;;;2.50;99.90;;;;;;4944452;28;20142;-63
2022/01/26 07:03:03;;;;;;;65.15;27.08;;;2.50;99.90;;;;;;4958218;28;20193;-48
2022/01/26 07:05:30;;;;;;;66.80;29.85;;;2.50;99.90;;;;;;4977925;28;20105;-47
2022/01/26 07:07:56;;;;;;;61.92;27.98;;;2.50;99.90;;;;;;4976045;28;20050;-64
2022/01/26 07:10:22;;;;;;;67.22;30.20;;;2.50;99.90;;;;;;4973366;28;20525;-61
2022/01/26 07:12:48;;;;;;;64.03;28.90;;;2.60;99.90;;;;;;4966654;28;20097;-65
2022/01/26 07:23:39;;;;;;;63.58;30.42;;;2.60;99.90;;;;;;4957286;28;20047;-64
2022/01/26 07:26:06;;;;;;;63.63;28.58;;;2.60;99.90;;;;;;4954424;28;20042;-51
2022/01/26 07:28:37;;;;;;;67.50;32.72;;;2.60;99.90;;;;;;4955871;28;20567;-48
2022/01/26 07:31:04;;;;;;;;;;;2.60;99.90;;;;;;4916457;28;20058;-48
2022/01/26 07:33:31;;;;;;;69.45;32.75;;;2.60;99.90;;;;;;4960608;28;20436;-64
2022/01/26 07:35:58;;;;;;;75.72;33.80;;;2.60;99.90;;;;;;4966472;28;20329;-64
2022/01/26 07:38:27;;;;;;;68.15;33.33;;;2.70;99.90;;;;;;4939431;28;20474;-64
2022/01/26 07:40:53;;;;;;;68.45;33.53;;;2.70;99.90;;;;;;4964558;28;20603;-64
2022/01/26 07:43:20;;;;;;;75.88;34.85;;;2.60;99.90;;;;;;4913292;28;20055;-64
2022/01/26 07:45:46;;;;;;;73.55;35.15;;;2.60;99.90;;;;;;4940199;28;20583;-64
2022/01/26 07:48:12;;;;;;;74.57;34.83;;;2.60;99.90;;;;;;4955617;28;20472;-65
2022/01/26 07:50:39;;;;;;;76.22;35.33;;;2.70;99.90;;;;;;4957094;28;20057;-63
2022/01/26 07:53:05;;;;;;;77.80;39.08;;;2.70;99.90;;;;;;4944329;28;20058;-50
2022/01/26 07:55:32;;;;;;;74.50;35.60;;;2.70;99.90;;;;;;4972197;28;20524;-48
2022/01/26 07:57:58;;;;;;;78.70;38.13;;;2.70;99.90;;;;;;4952056;28;20053;-49
2022/01/26 08:00:24;;;;;;;84.38;38.63;;;2.70;99.90;;;;;;4924233;28;20047;-50
2022/01/26 08:02:50;;;;;;;81.53;38.67;;;2.70;99.90;;;;;;4964190;28;20055;-64
2022/01/26 08:05:17;;;;;;;82.75;39.03;;;2.70;99.90;;;;;;4976173;28;20062;-51
2022/01/26 08:07:44;;;;;;;87.05;42.05;;;2.70;99.90;;;;;;4934020;28;20073;-50
2022/01/26 08:10:11;;;;;;;85.43;39.78;;;2.80;99.90;;;;;;4955009;28;20054;-50
2022/01/26 08:12:38;;;;;;;89.55;42.92;;;2.80;99.90;;;;;;4993031;28;20643;-63
2022/01/26 08:15:07;;;;;;;93.70;43.70;;;2.80;99.90;;;;;;4983511;28;20049;-62
2022/01/26 08:17:35;;;;;;;88.28;41.95;;;2.80;99.90;;;;;;4980057;28;20050;-53
2022/01/26 08:20:04;;;;;;;94.93;45.10;;;2.80;99.90;;;;;;4969338;28;20616;-51
2022/01/26 08:22:31;;;;;;;99.07;47.75;;;2.80;99.90;;;;;;4941966;28;20054;-65
2022/01/26 08:24:58;;;;;;;96.93;45.50;;;2.80;99.90;;;;;;4950241;28;20056;-47
2022/01/26 08:27:27;;;;;;;100.13;49.15;;;2.80;99.90;;;;;;4957154;28;20049;-64
2022/01/26 08:30:00;;;;;;;103.65;51.47;;;2.90;99.90;;;;;;4963605;28;20813;-63
2022/01/26 08:32:29;;;;;;;108.20;53.10;;;2.90;99.90;;;;;;4956177;28;20085;-64
2022/01/26 08:34:55;;;;;;;104.80;51.83;;;2.90;99.90;;;;;;4955160;28;20042;-48
2022/01/26 08:37:21;;;;;;;105.82;52.65;;;2.90;99.90;;;;;;4983370;28;20121;-51
2022/01/26 08:39:47;;;;;;;116.80;54.38;;;3.00;99.90;;;;;;4981242;28;20119;-49
2022/01/26 08:42:14;;;;;;;117.30;54.20;;;3.00;99.90;;;;;;4959574;28;20058;-54
2022/01/26 08:44:40;;;;;;;108.47;54.30;;;3.00;99.90;;;;;;4971446;28;20501;-50
2022/01/26 08:47:06;;;;;;;122.90;57.92;;;3.00;99.90;;;;;;4972394;28;20043;-50
2022/01/26 08:49:33;;;;;;;116.45;56.45;;;3.00;99.90;;;;;;4958361;28;20090;-57
2022/01/26 08:51:59;;;;;;;120.07;59.33;;;3.00;99.90;;;;;;4974940;28;20054;-51
2022/01/26 08:54:26;;;;;;;115.97;57.85;;;3.10;99.90;;;;;;4971410;28;20062;-54
2022/01/26 08:56:53;;;;;;;115.65;58.42;;;3.10;99.90;;;;;;4961704;28;20059;-52
2022/01/26 08:59:21;;;;;;;114.15;56.85;;;3.10;99.90;;;;;;4952188;28;20058;-50
2022/01/26 09:01:47;;;;;;;120.40;59.05;;;3.10;99.90;;;;;;4953807;28;20133;-51
2022/01/26 09:04:14;;;;;;;123.00;60.60;;;3.10;99.90;;;;;;4963028;28;20050;-53
2022/01/26 09:06:50;;;;;;;124.15;61.80;;;3.10;99.90;;;;;;4956920;28;20106;-49
2022/01/26 09:09:21;;;;;;;131.85;62.38;;;3.20;99.90;;;;;;4972520;28;20050;-51
2022/01/26 09:11:48;;;;;;;121.28;61.53;;;3.20;99.90;;;;;;4962133;28;20091;-52
2022/01/26 09:14:21;;;;;;;129.40;63.40;;;3.20;99.90;;;;;;4950172;28;20496;-49
2022/01/26 09:16:51;;;;;;;129.15;63.83;;;3.20;99.90;;;;;;4964696;28;20047;-51
2022/01/26 09:19:29;;;;;;;127.03;61.60;;;3.20;99.90;;;;;;4962875;28;20054;-49
2022/01/26 09:22:00;;;;;;;119.43;59.13;;;3.20;99.90;;;;;;4963855;28;20062;-49
2022/01/26 09:24:28;;;;;;;134.02;64.93;;;3.30;99.90;;;;;;4970249;28;20057;-53
2022/01/26 09:26:55;;;;;;;135.05;64.47;;;3.20;99.90;;;;;;4948464;28;20043;-51
2022/01/26 09:29:21;;;;;;;137.23;65.97;;;3.30;99.90;;;;;;4948335;28;20073;-45
2022/01/26 09:31:48;;;;;;;127.82;62.00;;;3.30;99.90;;;;;;4948414;28;20050;-48
2022/01/26 09:34:18;;;;;;;129.75;64.68;;;3.30;99.90;;;;;;4960313;28;20055;-47
2022/01/26 09:36:45;;;;;;;128.95;63.80;;;3.40;99.90;;;;;;4970863;28;20054;-48
2022/01/26 09:39:17;;;;;;;138.98;66.40;;;3.40;99.90;;;;;;4965315;28;20082;-49
2022/01/26 09:41:45;;;;;;;127.25;63.15;;;3.40;99.90;;;;;;4946562;28;20141;-49
2022/01/26 09:44:12;;;;;;;131.60;63.60;;;3.40;99.90;;;;;;4972729;28;20049;-62
2022/01/26 09:46:39;;;;;;;128.82;62.33;;;3.40;99.90;;;;;;4940974;28;20043;-47
2022/01/26 09:49:07;;;;;;;137.40;66.85;;;3.50;99.90;;;;;;4958487;28;20572;-50
2022/01/26 09:51:41;;;;;;;129.93;63.25;;;3.50;99.90;;;;;;4951736;28;20048;-51
2022/01/26 09:54:16;;;;;;;135.25;64.90;;;3.50;99.90;;;;;;4957865;28;20051;-50
2022/01/26 09:56:46;;;;;;;125.40;61.42;;;3.50;99.90;;;;;;4940305;28;20059;-63
2022/01/26 09:59:14;;;;;;;126.50;61.47;;;3.50;99.90;;;;;;4937797;28;20059;-63
2022/01/26 10:01:48;;;;;;;128.63;60.47;;;3.60;99.90;;;;;;4973668;28;20050;-63
2022/01/26 10:04:29;;;;;;;124.32;60.88;;;3.60;99.90;;;;;;4977202;28;20046;-63
2022/01/26 10:07:42;;;;;;;124.60;60.10;;;3.70;99.90;;;;;;4954150;28;20121;-63
2022/01/26 10:15:44;;;;;;;127.35;59.92;;;3.80;99.90;;;;;;4957915;28;20054;-63
2022/01/26 10:18:15;;;;;;;125.35;58.28;;;3.80;99.90;;;;;;4958705;28;20046;-63
2022/01/26 10:20:52;;;;;;;119.85;57.70;;;3.80;99.90;;;;;;4970258;28;20497;-64
2022/01/26 10:23:20;;;;;;;116.32;57.30;;;3.90;99.90;;;;;;4975396;28;20053;-63
2022/01/26 10:26:08;;;;;;;115.35;58.60;;;3.80;99.90;;;;;;4955052;28;20045;-63
2022/01/26 10:28:46;;;;;;;112.30;55.95;;;3.90;99.90;;;;;;4972856;28;20490;-63
2022/01/26 10:31:16;;;;;;;110.75;56.47;;;3.90;99.90;;;;;;4957751;28;20046;-63
2022/01/26 10:33:59;;;;;;;116.55;58.78;;;3.90;99.90;;;;;;4953636;28;20055;-64
2022/01/26 10:36:33;;;;;;;116.78;55.58;;;3.90;99.90;;;;;;4951392;28;20058;-64
2022/01/26 10:39:13;;;;;;;111.65;56.85;;;3.90;99.90;;;;;;4953282;28;20050;-63
2022/01/26 10:41:43;;;;;;;111.18;57.15;;;4.00;99.90;;;;;;4950391;28;20489;-63
2022/01/26 10:44:09;;;;;;;118.30;55.15;;;4.00;99.90;;;;;;4951293;28;20047;-63
2022/01/26 10:46:42;;;;;;;105.88;52.50;;;4.00;99.90;;;;;;4947038;28;20119;-61
2022/01/26 10:49:18;;;;;;;102.53;54.35;;;4.00;99.90;;;;;;4975485;28;20053;-63
2022/01/26 10:54:22;;;;;;;99.15;50.85;;;4.10;99.90;;;;;;4965178;28;20043;-63
2022/01/26 10:56:48;;;;;;;102.88;53.40;;;4.10;99.90;;;;;;4973919;28;20050;-63
2022/01/26 10:59:15;;;;;;;101.18;53.13;;;4.10;99.90;;;;;;4963174;28;20126;-64
2022/01/26 11:01:41;;;;;;;101.82;52.42;;;4.10;99.90;;;;;;4974674;28;20054;-63
2022/01/26 11:04:08;;;;;;;92.95;50.15;;;4.10;99.90;;;;;;4961651;28;20531;-63
2022/01/26 11:06:36;;;;;;;103.82;51.85;;;4.20;99.90;;;;;;4957563;28;20047;-63
2022/01/26 11:09:10;;;;;;;94.82;49.63;;;4.20;99.90;;;;;;4958510;28;20054;-63
2022/01/26 11:11:39;;;;;;;95.13;49.00;;;4.20;99.90;;;;;;4967620;28;20092;-63
2022/01/26 11:14:21;;;;;;;94.38;50.38;;;4.20;99.90;;;;;;4957016;28;20054;-63
2022/01/26 11:16:53;;;;;;;91.82;47.05;;;4.20;99.90;;;;;;4978833;28;20561;-64
2022/01/26 11:19:20;;;;;;;;;;;4.20;99.90;;;;;;4950005;28;20125;-63
2022/01/26 11:21:47;;;;;;;95.80;47.38;;;4.20;99.90;;;;;;4967429;28;20354;-63
2022/01/26 11:24:24;;;;;;;97.85;48.75;;;4.20;99.90;;;;;;4958493;28;20053;-63
2022/01/26 11:27:10;;;;;;;91.07;47.90;;;4.20;99.90;;;;;;4961703;28;20515;-63
2022/01/26 11:29:42;;;;;;;91.55;45.88;;;4.30;99.90;;;;;;4961116;28;20478;-63
2022/01/26 11:32:18;;;;;;;93.60;48.60;;;4.30;99.90;;;;;;4966853;28;20149;-63
2022/01/26 11:34:49;;;;;;;90.95;47.35;;;4.30;99.90;;;;;;4959526;28;20447;-63
2022/01/26 11:37:19;;;;;;;92.90;48.30;;;4.30;99.90;;;;;;4970125;28;20505;-49
2022/01/26 11:45:27;;;;;;;88.32;44.35;;;4.30;99.90;;;;;;4978202;28;20043;-48
2022/01/26 11:48:11;;;;;;;85.75;46.03;;;4.30;99.90;;;;;;4989865;28;20047;-48
2022/01/26 11:50:44;;;;;;;86.57;44.75;;;4.30;99.90;;;;;;4985668;28;20398;-47
2022/01/26 11:53:15;;;;;;;93.45;47.00;;;4.30;99.90;;;;;;4989636;28;20076;-49
2022/01/26 11:55:48;;;;;;;94.20;46.70;;;4.30;99.90;;;;;;4987147;28;20165;-50
2022/01/26 11:58:18;;;;;;;89.25;45.17;;;4.30;99.90;;;;;;5014718;28;20122;-48
2022/01/26 12:01:12;;;;;;;95.72;47.70;;;4.40;99.90;;;;;;4983574;28;20056;-51
2022/01/26 12:03:44;;;;;;;95.82;45.35;;;4.40;99.90;;;;;;4982797;28;20037;-46
2022/01/26 12:06:20;;;;;;;86.00;44.70;;;4.40;99.90;;;;;;4997150;28;20054;-50
2022/01/26 12:08:47;;;;;;;88.05;46.75;;;4.40;99.90;;;;;;5019167;28;20029;-52
2022/01/26 12:11:16;;;;;;;83.93;43.53;;;4.40;99.90;;;;;;4984934;28;20572;-48
2022/01/26 12:13:45;;;;;;;83.22;43.28;;;4.50;99.90;;;;;;4988358;28;20058;-48
2022/01/26 12:16:16;;;;;;;83.80;43.83;;;4.50;99.90;;;;;;4989215;28;20628;-53
2022/01/26 12:18:54;;;;;;;93.40;44.78;;;4.40;99.90;;;;;;4980440;28;20082;-52
2022/01/26 12:33:53;;;;;;;92.47;44.70;;;4.40;99.90;;;;;;4957191;28;20054;-48
2022/01/26 12:38:19;;;;;;;91.50;46.17;;;4.30;99.90;;;;;;4963994;28;20499;-53
2022/01/26 12:43:49;;;;;;;87.47;44.15;;;4.40;99.90;;;;;;4963638;28;20043;-49
2022/01/26 12:46:20;;;;;;;87.63;44.33;;;4.40;99.90;;;;;;4959905;28;20116;-47
2022/01/26 12:48:53;;;;;;;81.95;41.47;;;4.40;99.90;;;;;;4961473;28;20108;-52
2022/01/26 12:51:20;;;;;;;85.97;43.45;;;4.50;99.90;;;;;;4961059;28;20055;-50
2022/01/26 12:53:58;;;;;;;81.82;43.38;;;4.50;99.90;;;;;;4942185;28;20390;-63
2022/01/26 12:56:30;;;;;;;78.53;43.03;;;4.50;99.90;;;;;;4927479;28;20058;-62
2022/01/26 12:59:01;;;;;;;;;;;4.50;99.90;;;;;;4945699;28;20054;-48
2022/01/26 13:01:27;;;;;;;78.50;41.38;;;4.60;99.90;;;;;;4952857;28;20403;-47
2022/01/26 13:03:58;;;;;;;72.63;38.72;;;4.50;99.90;;;;;;4969780;28;20518;-51
2022/01/26 13:06:28;;;;;;;78.32;41.50;;;4.50;99.90;;;;;;4951014;28;20054;-49
2022/01/26 13:08:56;;;;;;;77.70;40.05;;;4.60;99.90;;;;;;4961468;28;20498;-50
2022/01/26 13:11:30;;;;;;;105.90;59.78;;;4.50;99.90;;;;;;4961220;28;20104;-48
2022/01/26 13:14:02;;;;;;;81.10;40.50;;;4.40;99.90;;;;;;4954135;28;20042;-48
2022/01/26 13:16:35;;;;;;;;;;;4.50;99.90;;;;;;4966192;28;20526;-48
2022/01/26 13:19:29;;;;;;;80.00;40.22;;;4.50;99.90;;;;;;4961328;28;20495;-49
2022/01/26 13:43:15;;;;;;;78.88;39.58;;;4.60;99.90;;;;;;4963151;28;20050;-62
2022/01/26 13:51:04;;;;;;;77.57;39.90;;;4.60;99.90;;;;;;4991605;28;20125;-62
2022/01/26 13:53:56;;;;;;;76.00;38.65;;;4.70;99.90;;;;;;4962606;28;20138;-62
2022/01/26 14:01:41;;;;;;;74.88;38.47;;;4.80;99.90;;;;;;4966995;28;20049;-47
2022/01/26 14:04:07;;;;;;;69.68;36.13;;;4.80;99.90;;;;;;4959878;28;20047;-61
2022/01/26 14:06:33;;;;;;;74.70;39.78;;;4.80;99.90;;;;;;4960451;28;20126;-48
2022/01/26 14:08:59;;;;;;;69.68;39.47;;;4.80;99.90;;;;;;4944216;28;20417;-49
2022/01/26 14:11:25;;;;;;;74.43;40.05;;;4.80;99.90;;;;;;4957135;28;20717;-46
2022/01/26 14:13:55;;;;;;;73.47;38.38;;;4.70;99.90;;;;;;4966368;28;20047;-62
2022/01/26 14:16:24;;;;;;;73.68;40.30;;;4.70;99.90;;;;;;4959424;28;20043;-62
2022/01/26 14:19:05;;;;;;;72.60;38.28;;;4.70;99.90;;;;;;4959780;28;20087;-49
2022/01/26 14:22:07;;;;;;;76.38;40.72;;;4.80;99.90;;;;;;4969626;28;20460;-62
2022/01/26 14:24:33;;;;;;;66.18;38.40;;;4.80;99.90;;;;;;4928064;28;20042;-49
2022/01/26 14:27:02;;;;;;;72.07;39.70;;;4.80;99.90;;;;;;4948924;28;20222;-62
2022/01/26 14:29:54;;;;;;;66.93;40.55;;;4.80;99.90;;;;;;4957102;28;20082;-61
2022/01/26 14:32:42;;;;;;;66.72;40.25;;;4.80;99.90;;;;;;4968843;28;20083;-61
2022/01/26 14:51:28;;;;;;;71.40;40.60;;;4.90;99.90;;;;;;4958730;28;20050;-49
2022/01/26 15:10:12;;;;;;;69.32;38.22;;;5.00;99.90;;;;;;4959293;28;20046;-61
2022/01/26 15:50:09;;;;;;;75.32;38.55;;;4.90;99.90;;;;;;4974784;28;20061;-50
2022/01/26 15:53:25;;;;;;;66.50;35.40;;;4.90;99.90;;;;;;4934140;28;20078;-46
2022/01/26 16:17:27;;;;;;;68.35;37.03;;;4.90;99.90;;;;;;4954901;28;20102;-50
2022/01/26 16:38:50;;;;;;;66.75;34.97;;;5.00;99.90;;;;;;4967995;28;20057;-46
2022/01/26 17:46:42;;;;;;;60.13;35.20;;;5.30;99.90;;;;;;4972206;28;20041;-49
2022/01/26 18:04:07;;;;;;;60.22;33.67;;;5.30;99.90;;;;;;4997045;28;20521;-51
2022/01/26 18:25:54;;;;;;;61.10;32.05;;;5.40;99.90;;;;;;4984056;28;20091;-51
2022/01/26 18:46:26;;;;;;;50.88;30.33;;;5.50;99.90;;;;;;4983326;28;20055;-48
2022/01/26 18:49:39;;;;;;;53.60;31.48;;;5.60;99.90;;;;;;4974811;28;20494;-47
2022/01/26 18:52:07;;;;;;;57.65;33.72;;;5.60;99.90;;;;;;4997096;28;20047;-49
2022/01/26 18:54:35;;;;;;;49.20;30.60;;;5.60;99.90;;;;;;4993119;28;20051;-47
2022/01/26 18:57:05;;;;;;;57.83;33.83;;;5.60;99.90;;;;;;4998319;28;20044;-47
2022/01/26 18:59:31;;;;;;;52.80;30.15;;;5.60;99.90;;;;;;4988418;28;20470;-51
2022/01/26 19:01:59;;;;;;;54.30;30.50;;;5.60;99.90;;;;;;5005857;28;20125;-51
2022/01/26 19:04:48;;;;;;;45.05;29.65;;;5.60;99.90;;;;;;4983740;28;20113;-47
2022/01/26 19:07:15;;;;;;;54.05;31.38;;;5.60;99.90;;;;;;5024692;28;20510;-52
2022/01/26 19:09:47;;;;;;;48.78;29.42;;;5.60;99.90;;;;;;4992819;28;20138;-51
2022/01/26 19:12:16;;;;;;;48.67;30.17;;;5.60;99.90;;;;;;4987003;28;20237;-51
2022/01/26 19:14:49;;;;;;;56.42;32.70;;;5.60;99.90;;;;;;4973618;28;20438;-49
2022/01/26 19:17:25;;;;;;;55.08;31.95;;;5.60;99.90;;;;;;5001609;28;20075;-51